sensor_id;sensor_type;location;lat;lon;timestamp;P1;durP1;ratioP1;P2;durP2;ratioP2
48813;SDS011;34634;44.108;3.074;2023-04-16T00:00:52;3.40;;;1.73;;
48813;SDS011;34634;44.108;3.074;2023-04-16T00:03:19;2.75;;;1.45;;
48813;SDS011;34634;44.108;3.074;2023-04-16T00:06:05;2.25;;;1.27;;
48813;SDS011;34634;44.108;3.074;2023-04-16T00:08:32;3.65;;;0.90;;
48813;SDS011;34634;44.108;3.074;2023-04-16T00:11:00;2.35;;;1.10;;
48813;SDS011;34634;44.108;3.074;2023-04-16T00:13:26;2.50;;;1.10;;
48813;SDS011;34634;44.108;3.074;2023-04-16T00:15:52;2.22;;;1.02;;
48813;SDS011;34634;44.108;3.074;2023-04-16T00:18:18;1.58;;;1.30;;
48813;SDS011;34634;44.108;3.074;2023-04-16T00:20:46;11.05;;;1.23;;
48813;SDS011;34634;44.108;3.074;2023-04-16T00:23:13;2.40;;;1.27;;
48813;SDS011;34634;44.108;3.074;2023-04-16T00:25:39;2.67;;;1.13;;
48813;SDS011;34634;44.108;3.074;2023-04-16T00:28:07;1.58;;;1.10;;
48813;SDS011;34634;44.108;3.074;2023-04-16T00:30:33;1.65;;;1.08;;
48813;SDS011;34634;44.108;3.074;2023-04-16T00:33:00;2.45;;;1.17;;
48813;SDS011;34634;44.108;3.074;2023-04-16T00:35:27;2.28;;;1.02;;
48813;SDS011;34634;44.108;3.074;2023-04-16T00:37:54;1.55;;;0.80;;
48813;SDS011;34634;44.108;3.074;2023-04-16T00:40:20;1.42;;;1.13;;
48813;SDS011;34634;44.108;3.074;2023-04-16T00:42:46;1.67;;;1.00;;
48813;SDS011;34634;44.108;3.074;2023-04-16T00:45:12;1.13;;;1.00;;
48813;SDS011;34634;44.108;3.074;2023-04-16T00:47:39;2.50;;;1.33;;
48813;SDS011;34634;44.108;3.074;2023-04-16T00:50:05;1.95;;;1.05;;
48813;SDS011;34634;44.108;3.074;2023-04-16T00:52:32;1.67;;;0.90;;
48813;SDS011;34634;44.108;3.074;2023-04-16T00:54:59;1.65;;;1.20;;
48813;SDS011;34634;44.108;3.074;2023-04-16T00:57:25;2.95;;;1.08;;
48813;SDS011;34634;44.108;3.074;2023-04-16T00:59:52;3.40;;;1.00;;
48813;SDS011;34634;44.108;3.074;2023-04-16T01:02:19;1.73;;;1.00;;
48813;SDS011;34634;44.108;3.074;2023-04-16T01:04:45;1.60;;;1.23;;
48813;SDS011;34634;44.108;3.074;2023-04-16T01:07:11;2.15;;;1.00;;
48813;SDS011;34634;44.108;3.074;2023-04-16T01:09:38;1.92;;;1.10;;
48813;SDS011;34634;44.108;3.074;2023-04-16T01:12:04;4.38;;;1.00;;
48813;SDS011;34634;44.108;3.074;2023-04-16T01:14:30;1.35;;;0.90;;
48813;SDS011;34634;44.108;3.074;2023-04-16T01:17:01;1.25;;;0.85;;
48813;SDS011;34634;44.108;3.074;2023-04-16T01:19:28;1.20;;;1.00;;
48813;SDS011;34634;44.108;3.074;2023-04-16T01:21:55;2.50;;;1.10;;
48813;SDS011;34634;44.108;3.074;2023-04-16T01:24:22;1.45;;;1.13;;
48813;SDS011;34634;44.108;3.074;2023-04-16T01:26:48;1.58;;;0.73;;
48813;SDS011;34634;44.108;3.074;2023-04-16T01:29:14;1.98;;;0.90;;
48813;SDS011;34634;44.108;3.074;2023-04-16T01:31:41;1.27;;;0.95;;
48813;SDS011;34634;44.108;3.074;2023-04-16T01:34:07;2.22;;;1.10;;
48813;SDS011;34634;44.108;3.074;2023-04-16T01:36:35;1.88;;;1.00;;
48813;SDS011;34634;44.108;3.074;2023-04-16T01:39:01;1.35;;;0.90;;
48813;SDS011;34634;44.108;3.074;2023-04-16T01:41:27;1.95;;;1.05;;
48813;SDS011;34634;44.108;3.074;2023-04-16T01:43:53;1.30;;;0.80;;
48813;SDS011;34634;44.108;3.074;2023-04-16T01:46:22;3.33;;;1.20;;
48813;SDS011;34634;44.108;3.074;2023-04-16T01:48:51;4.25;;;1.00;;
48813;SDS011;34634;44.108;3.074;2023-04-16T01:51:19;1.50;;;1.00;;
48813;SDS011;34634;44.108;3.074;2023-04-16T01:53:45;3.17;;;1.00;;
48813;SDS011;34634;44.108;3.074;2023-04-16T01:56:11;2.38;;;1.05;;
48813;SDS011;34634;44.108;3.074;2023-04-16T01:58:38;1.58;;;1.00;;
48813;SDS011;34634;44.108;3.074;2023-04-16T02:01:05;1.10;;;0.90;;
48813;SDS011;34634;44.108;3.074;2023-04-16T02:03:32;2.78;;;1.40;;
48813;SDS011;34634;44.108;3.074;2023-04-16T02:05:58;1.20;;;1.00;;
48813;SDS011;34634;44.108;3.074;2023-04-16T02:08:25;1.98;;;1.08;;
48813;SDS011;34634;44.108;3.074;2023-04-16T02:10:51;1.75;;;1.00;;
48813;SDS011;34634;44.108;3.074;2023-04-16T02:13:18;3.42;;;1.00;;
48813;SDS011;34634;44.108;3.074;2023-04-16T02:15:45;1.80;;;1.13;;
48813;SDS011;34634;44.108;3.074;2023-04-16T02:18:11;1.95;;;1.20;;
48813;SDS011;34634;44.108;3.074;2023-04-16T02:20:41;1.77;;;1.23;;
48813;SDS011;34634;44.108;3.074;2023-04-16T02:23:08;1.92;;;1.25;;
48813;SDS011;34634;44.108;3.074;2023-04-16T02:25:41;1.92;;;1.15;;
48813;SDS011;34634;44.108;3.074;2023-04-16T02:28:08;1.25;;;1.05;;
48813;SDS011;34634;44.108;3.074;2023-04-16T02:30:35;1.83;;;1.00;;
48813;SDS011;34634;44.108;3.074;2023-04-16T02:33:02;2.42;;;1.00;;
48813;SDS011;34634;44.108;3.074;2023-04-16T02:35:30;1.83;;;1.17;;
48813;SDS011;34634;44.108;3.074;2023-04-16T02:37:57;1.77;;;1.25;;
48813;SDS011;34634;44.108;3.074;2023-04-16T02:40:23;2.15;;;1.38;;
48813;SDS011;34634;44.108;3.074;2023-04-16T02:42:50;2.35;;;1.30;;
48813;SDS011;34634;44.108;3.074;2023-04-16T02:45:16;3.35;;;1.30;;
48813;SDS011;34634;44.108;3.074;2023-04-16T02:47:42;1.92;;;1.20;;
48813;SDS011;34634;44.108;3.074;2023-04-16T02:50:09;2.20;;;1.40;;
48813;SDS011;34634;44.108;3.074;2023-04-16T02:52:35;2.20;;;1.20;;
48813;SDS011;34634;44.108;3.074;2023-04-16T02:55:02;1.52;;;1.13;;
48813;SDS011;34634;44.108;3.074;2023-04-16T02:57:28;1.25;;;1.15;;
48813;SDS011;34634;44.108;3.074;2023-04-16T02:59:54;2.08;;;1.30;;
48813;SDS011;34634;44.108;3.074;2023-04-16T03:02:21;2.50;;;1.40;;
48813;SDS011;34634;44.108;3.074;2023-04-16T03:04:47;3.05;;;1.30;;
48813;SDS011;34634;44.108;3.074;2023-04-16T03:07:13;1.65;;;1.42;;
48813;SDS011;34634;44.108;3.074;2023-04-16T03:09:40;1.48;;;1.38;;
48813;SDS011;34634;44.108;3.074;2023-04-16T03:12:06;2.28;;;1.50;;
48813;SDS011;34634;44.108;3.074;2023-04-16T03:14:32;2.80;;;1.63;;
48813;SDS011;34634;44.108;3.074;2023-04-16T03:16:59;2.65;;;1.30;;
48813;SDS011;34634;44.108;3.074;2023-04-16T03:19:25;4.85;;;1.63;;
48813;SDS011;34634;44.108;3.074;2023-04-16T03:21:51;3.15;;;1.50;;
48813;SDS011;34634;44.108;3.074;2023-04-16T03:24:18;1.52;;;1.42;;
48813;SDS011;34634;44.108;3.074;2023-04-16T03:26:44;2.55;;;1.80;;
48813;SDS011;34634;44.108;3.074;2023-04-16T03:29:10;2.72;;;1.70;;
48813;SDS011;34634;44.108;3.074;2023-04-16T03:31:36;1.48;;;1.30;;
48813;SDS011;34634;44.108;3.074;2023-04-16T03:34:03;4.80;;;1.67;;
48813;SDS011;34634;44.108;3.074;2023-04-16T03:36:29;1.65;;;1.55;;
48813;SDS011;34634;44.108;3.074;2023-04-16T03:38:56;1.80;;;1.50;;
48813;SDS011;34634;44.108;3.074;2023-04-16T03:41:23;1.83;;;1.70;;
48813;SDS011;34634;44.108;3.074;2023-04-16T03:43:49;3.25;;;1.65;;
48813;SDS011;34634;44.108;3.074;2023-04-16T03:46:15;3.05;;;1.52;;
48813;SDS011;34634;44.108;3.074;2023-04-16T03:48:42;2.72;;;1.77;;
48813;SDS011;34634;44.108;3.074;2023-04-16T03:51:08;3.05;;;2.03;;
48813;SDS011;34634;44.108;3.074;2023-04-16T03:53:34;3.72;;;2.42;;
48813;SDS011;34634;44.108;3.074;2023-04-16T03:56:00;3.03;;;2.20;;
48813;SDS011;34634;44.108;3.074;2023-04-16T03:58:27;5.45;;;2.13;;
48813;SDS011;34634;44.108;3.074;2023-04-16T04:00:53;3.08;;;2.42;;
48813;SDS011;34634;44.108;3.074;2023-04-16T04:03:19;3.92;;;2.30;;
48813;SDS011;34634;44.108;3.074;2023-04-16T04:05:46;3.67;;;2.40;;
48813;SDS011;34634;44.108;3.074;2023-04-16T04:08:12;2.50;;;2.00;;
48813;SDS011;34634;44.108;3.074;2023-04-16T04:10:38;2.90;;;2.30;;
48813;SDS011;34634;44.108;3.074;2023-04-16T04:13:05;2.92;;;2.40;;
48813;SDS011;34634;44.108;3.074;2023-04-16T04:15:31;2.47;;;2.00;;
48813;SDS011;34634;44.108;3.074;2023-04-16T04:17:58;4.05;;;2.22;;
48813;SDS011;34634;44.108;3.074;2023-04-16T04:20:24;3.90;;;2.22;;
48813;SDS011;34634;44.108;3.074;2023-04-16T04:22:50;3.03;;;2.33;;
48813;SDS011;34634;44.108;3.074;2023-04-16T04:25:17;4.35;;;2.40;;
48813;SDS011;34634;44.108;3.074;2023-04-16T04:27:43;2.92;;;2.28;;
48813;SDS011;34634;44.108;3.074;2023-04-16T04:30:10;3.15;;;2.00;;
48813;SDS011;34634;44.108;3.074;2023-04-16T04:32:36;4.10;;;2.75;;
48813;SDS011;34634;44.108;3.074;2023-04-16T04:35:02;4.03;;;2.47;;
48813;SDS011;34634;44.108;3.074;2023-04-16T04:37:29;4.97;;;2.60;;
48813;SDS011;34634;44.108;3.074;2023-04-16T04:39:55;5.22;;;2.50;;
48813;SDS011;34634;44.108;3.074;2023-04-16T04:42:22;3.97;;;2.67;;
48813;SDS011;34634;44.108;3.074;2023-04-16T04:44:48;3.97;;;2.45;;
48813;SDS011;34634;44.108;3.074;2023-04-16T04:47:14;5.22;;;2.90;;
48813;SDS011;34634;44.108;3.074;2023-04-16T04:49:40;5.13;;;2.70;;
48813;SDS011;34634;44.108;3.074;2023-04-16T04:52:07;6.82;;;2.92;;
48813;SDS011;34634;44.108;3.074;2023-04-16T04:54:33;4.13;;;2.78;;
48813;SDS011;34634;44.108;3.074;2023-04-16T04:57:00;4.63;;;2.80;;
48813;SDS011;34634;44.108;3.074;2023-04-16T04:59:27;5.30;;;3.00;;
48813;SDS011;34634;44.108;3.074;2023-04-16T05:01:53;3.97;;;2.90;;
48813;SDS011;34634;44.108;3.074;2023-04-16T05:04:19;4.70;;;2.90;;
48813;SDS011;34634;44.108;3.074;2023-04-16T05:06:45;7.72;;;2.95;;
48813;SDS011;34634;44.108;3.074;2023-04-16T05:09:12;3.65;;;2.92;;
48813;SDS011;34634;44.108;3.074;2023-04-16T05:11:39;4.82;;;3.15;;
48813;SDS011;34634;44.108;3.074;2023-04-16T05:14:05;5.28;;;2.95;;
48813;SDS011;34634;44.108;3.074;2023-04-16T05:16:34;5.20;;;3.03;;
48813;SDS011;34634;44.108;3.074;2023-04-16T05:19:01;4.22;;;2.75;;
48813;SDS011;34634;44.108;3.074;2023-04-16T05:21:27;4.97;;;2.85;;
48813;SDS011;34634;44.108;3.074;2023-04-16T05:23:53;5.53;;;2.78;;
48813;SDS011;34634;44.108;3.074;2023-04-16T05:26:20;6.80;;;3.53;;
48813;SDS011;34634;44.108;3.074;2023-04-16T05:28:47;5.90;;;3.25;;
48813;SDS011;34634;44.108;3.074;2023-04-16T05:31:14;4.20;;;3.15;;
48813;SDS011;34634;44.108;3.074;2023-04-16T05:33:40;3.80;;;3.38;;
48813;SDS011;34634;44.108;3.074;2023-04-16T05:36:06;6.03;;;3.50;;
48813;SDS011;34634;44.108;3.074;2023-04-16T05:38:32;5.68;;;3.65;;
48813;SDS011;34634;44.108;3.074;2023-04-16T05:40:59;7.70;;;3.42;;
48813;SDS011;34634;44.108;3.074;2023-04-16T05:43:25;6.07;;;3.58;;
48813;SDS011;34634;44.108;3.074;2023-04-16T05:45:51;4.78;;;3.28;;
48813;SDS011;34634;44.108;3.074;2023-04-16T05:48:18;5.72;;;3.88;;
48813;SDS011;34634;44.108;3.074;2023-04-16T05:50:44;7.68;;;4.28;;
48813;SDS011;34634;44.108;3.074;2023-04-16T05:53:10;5.13;;;4.03;;
48813;SDS011;34634;44.108;3.074;2023-04-16T05:55:38;4.97;;;3.80;;
48813;SDS011;34634;44.108;3.074;2023-04-16T05:58:04;4.90;;;3.72;;
48813;SDS011;34634;44.108;3.074;2023-04-16T06:00:33;6.40;;;4.15;;
48813;SDS011;34634;44.108;3.074;2023-04-16T06:03:00;7.20;;;4.05;;
48813;SDS011;34634;44.108;3.074;2023-04-16T06:05:27;7.20;;;4.00;;
48813;SDS011;34634;44.108;3.074;2023-04-16T06:07:53;6.65;;;4.40;;
48813;SDS011;34634;44.108;3.074;2023-04-16T06:10:20;5.78;;;3.95;;
48813;SDS011;34634;44.108;3.074;2023-04-16T06:12:46;6.93;;;3.90;;
48813;SDS011;34634;44.108;3.074;2023-04-16T06:15:13;7.75;;;3.90;;
48813;SDS011;34634;44.108;3.074;2023-04-16T06:17:39;8.57;;;4.20;;
48813;SDS011;34634;44.108;3.074;2023-04-16T06:20:06;7.30;;;3.92;;
48813;SDS011;34634;44.108;3.074;2023-04-16T06:22:32;6.70;;;4.05;;
48813;SDS011;34634;44.108;3.074;2023-04-16T06:24:59;5.28;;;4.15;;
48813;SDS011;34634;44.108;3.074;2023-04-16T06:27:25;9.43;;;4.65;;
48813;SDS011;34634;44.108;3.074;2023-04-16T06:29:51;5.15;;;4.00;;
48813;SDS011;34634;44.108;3.074;2023-04-16T06:32:18;5.35;;;3.83;;
48813;SDS011;34634;44.108;3.074;2023-04-16T06:34:44;5.63;;;4.20;;
48813;SDS011;34634;44.108;3.074;2023-04-16T06:37:11;7.38;;;4.68;;
48813;SDS011;34634;44.108;3.074;2023-04-16T06:39:37;6.65;;;4.43;;
48813;SDS011;34634;44.108;3.074;2023-04-16T06:42:03;6.10;;;4.30;;
48813;SDS011;34634;44.108;3.074;2023-04-16T06:44:30;8.68;;;5.00;;
48813;SDS011;34634;44.108;3.074;2023-04-16T06:46:56;8.18;;;5.32;;
48813;SDS011;34634;44.108;3.074;2023-04-16T06:49:23;10.68;;;5.90;;
48813;SDS011;34634;44.108;3.074;2023-04-16T06:51:49;5.63;;;4.63;;
48813;SDS011;34634;44.108;3.074;2023-04-16T06:54:15;7.53;;;4.85;;
48813;SDS011;34634;44.108;3.074;2023-04-16T06:56:43;7.18;;;4.25;;
48813;SDS011;34634;44.108;3.074;2023-04-16T06:59:09;5.75;;;4.15;;
48813;SDS011;34634;44.108;3.074;2023-04-16T07:01:35;6.53;;;4.45;;
48813;SDS011;34634;44.108;3.074;2023-04-16T07:04:02;8.70;;;4.47;;
48813;SDS011;34634;44.108;3.074;2023-04-16T07:06:28;5.85;;;4.28;;
48813;SDS011;34634;44.108;3.074;2023-04-16T07:08:56;6.15;;;4.50;;
48813;SDS011;34634;44.108;3.074;2023-04-16T07:11:22;6.05;;;4.35;;
48813;SDS011;34634;44.108;3.074;2023-04-16T07:13:50;7.82;;;4.78;;
48813;SDS011;34634;44.108;3.074;2023-04-16T07:16:18;7.47;;;4.75;;
48813;SDS011;34634;44.108;3.074;2023-04-16T07:18:44;5.90;;;4.05;;
48813;SDS011;34634;44.108;3.074;2023-04-16T07:21:10;6.22;;;4.43;;
48813;SDS011;34634;44.108;3.074;2023-04-16T07:23:36;6.70;;;4.22;;
48813;SDS011;34634;44.108;3.074;2023-04-16T07:26:03;7.25;;;4.53;;
48813;SDS011;34634;44.108;3.074;2023-04-16T07:28:29;5.20;;;4.57;;
48813;SDS011;34634;44.108;3.074;2023-04-16T07:30:55;5.95;;;4.20;;
48813;SDS011;34634;44.108;3.074;2023-04-16T07:33:22;6.07;;;4.85;;
48813;SDS011;34634;44.108;3.074;2023-04-16T07:35:49;7.18;;;4.72;;
48813;SDS011;34634;44.108;3.074;2023-04-16T07:38:15;9.02;;;4.78;;
48813;SDS011;34634;44.108;3.074;2023-04-16T07:40:42;5.38;;;4.57;;
48813;SDS011;34634;44.108;3.074;2023-04-16T07:43:08;4.63;;;3.90;;
48813;SDS011;34634;44.108;3.074;2023-04-16T07:45:35;5.60;;;4.25;;
48813;SDS011;34634;44.108;3.074;2023-04-16T07:48:01;6.00;;;4.50;;
48813;SDS011;34634;44.108;3.074;2023-04-16T07:50:28;5.57;;;3.80;;
48813;SDS011;34634;44.108;3.074;2023-04-16T07:52:54;8.40;;;4.20;;
48813;SDS011;34634;44.108;3.074;2023-04-16T07:55:20;4.20;;;3.53;;
48813;SDS011;34634;44.108;3.074;2023-04-16T07:57:46;8.23;;;4.57;;
48813;SDS011;34634;44.108;3.074;2023-04-16T08:00:13;6.75;;;5.00;;
48813;SDS011;34634;44.108;3.074;2023-04-16T08:02:40;6.00;;;4.53;;
48813;SDS011;34634;44.108;3.074;2023-04-16T08:05:06;6.32;;;4.97;;
48813;SDS011;34634;44.108;3.074;2023-04-16T08:07:32;5.97;;;4.05;;
48813;SDS011;34634;44.108;3.074;2023-04-16T08:09:59;5.10;;;4.20;;
48813;SDS011;34634;44.108;3.074;2023-04-16T08:12:25;6.00;;;4.30;;
48813;SDS011;34634;44.108;3.074;2023-04-16T08:14:51;5.68;;;4.13;;
48813;SDS011;34634;44.108;3.074;2023-04-16T08:17:18;4.93;;;3.85;;
48813;SDS011;34634;44.108;3.074;2023-04-16T08:19:44;4.93;;;4.13;;
48813;SDS011;34634;44.108;3.074;2023-04-16T08:22:11;6.70;;;4.70;;
48813;SDS011;34634;44.108;3.074;2023-04-16T08:24:37;6.30;;;4.10;;
48813;SDS011;34634;44.108;3.074;2023-04-16T08:27:04;6.43;;;4.55;;
48813;SDS011;34634;44.108;3.074;2023-04-16T08:29:30;6.93;;;4.22;;
48813;SDS011;34634;44.108;3.074;2023-04-16T08:31:57;7.18;;;4.13;;
48813;SDS011;34634;44.108;3.074;2023-04-16T08:34:24;4.32;;;3.92;;
48813;SDS011;34634;44.108;3.074;2023-04-16T08:36:50;7.90;;;4.18;;
48813;SDS011;34634;44.108;3.074;2023-04-16T08:39:16;5.28;;;3.90;;
48813;SDS011;34634;44.108;3.074;2023-04-16T08:41:43;5.55;;;3.80;;
48813;SDS011;34634;44.108;3.074;2023-04-16T08:44:18;6.28;;;4.20;;
48813;SDS011;34634;44.108;3.074;2023-04-16T08:46:45;6.03;;;3.63;;
48813;SDS011;34634;44.108;3.074;2023-04-16T08:49:16;4.82;;;3.72;;
48813;SDS011;34634;44.108;3.074;2023-04-16T08:51:42;6.38;;;3.72;;
48813;SDS011;34634;44.108;3.074;2023-04-16T08:54:11;6.00;;;3.38;;
48813;SDS011;34634;44.108;3.074;2023-04-16T08:56:38;3.25;;;2.88;;
48813;SDS011;34634;44.108;3.074;2023-04-16T08:59:07;5.07;;;3.13;;
48813;SDS011;34634;44.108;3.074;2023-04-16T09:01:34;4.22;;;2.92;;
48813;SDS011;34634;44.108;3.074;2023-04-16T09:04:02;5.40;;;3.53;;
48813;SDS011;34634;44.108;3.074;2023-04-16T09:06:30;4.85;;;3.00;;
48813;SDS011;34634;44.108;3.074;2023-04-16T09:08:58;5.25;;;2.75;;
48813;SDS011;34634;44.108;3.074;2023-04-16T09:11:24;3.85;;;2.88;;
48813;SDS011;34634;44.108;3.074;2023-04-16T09:13:50;3.75;;;2.65;;
48813;SDS011;34634;44.108;3.074;2023-04-16T09:16:17;5.28;;;3.42;;
48813;SDS011;34634;44.108;3.074;2023-04-16T09:18:43;4.93;;;2.85;;
48813;SDS011;34634;44.108;3.074;2023-04-16T09:21:12;6.00;;;2.90;;
48813;SDS011;34634;44.108;3.074;2023-04-16T09:23:38;3.20;;;2.70;;
48813;SDS011;34634;44.108;3.074;2023-04-16T09:26:05;4.90;;;2.75;;
48813;SDS011;34634;44.108;3.074;2023-04-16T09:28:41;3.88;;;2.75;;
48813;SDS011;34634;44.108;3.074;2023-04-16T09:31:09;6.30;;;2.95;;
48813;SDS011;34634;44.108;3.074;2023-04-16T09:33:36;5.65;;;3.20;;
48813;SDS011;34634;44.108;3.074;2023-04-16T09:36:03;7.10;;;2.90;;
48813;SDS011;34634;44.108;3.074;2023-04-16T09:38:48;4.40;;;2.47;;
48813;SDS011;34634;44.108;3.074;2023-04-16T09:41:15;4.25;;;2.67;;
48813;SDS011;34634;44.108;3.074;2023-04-16T09:43:48;6.35;;;2.35;;
48813;SDS011;34634;44.108;3.074;2023-04-16T09:46:14;4.10;;;2.80;;
48813;SDS011;34634;44.108;3.074;2023-04-16T09:48:41;4.75;;;2.38;;
48813;SDS011;34634;44.108;3.074;2023-04-16T09:51:11;2.65;;;2.22;;
48813;SDS011;34634;44.108;3.074;2023-04-16T09:53:37;2.30;;;2.10;;
48813;SDS011;34634;44.108;3.074;2023-04-16T09:56:04;3.17;;;2.33;;
48813;SDS011;34634;44.108;3.074;2023-04-16T09:58:31;2.92;;;2.50;;
48813;SDS011;34634;44.108;3.074;2023-04-16T10:01:01;3.95;;;2.50;;
48813;SDS011;34634;44.108;3.074;2023-04-16T10:03:28;4.18;;;2.40;;
48813;SDS011;34634;44.108;3.074;2023-04-16T10:05:55;3.08;;;2.40;;
48813;SDS011;34634;44.108;3.074;2023-04-16T10:08:24;3.53;;;2.40;;
48813;SDS011;34634;44.108;3.074;2023-04-16T10:10:50;3.60;;;3.00;;
48813;SDS011;34634;44.108;3.074;2023-04-16T10:13:17;2.92;;;2.33;;
48813;SDS011;34634;44.108;3.074;2023-04-16T10:15:44;3.65;;;2.35;;
48813;SDS011;34634;44.108;3.074;2023-04-16T10:18:11;5.00;;;2.38;;
48813;SDS011;34634;44.108;3.074;2023-04-16T10:20:37;4.13;;;2.17;;
48813;SDS011;34634;44.108;3.074;2023-04-16T10:23:03;2.92;;;2.10;;
48813;SDS011;34634;44.108;3.074;2023-04-16T10:25:30;3.20;;;2.17;;
48813;SDS011;34634;44.108;3.074;2023-04-16T10:27:57;2.83;;;2.03;;
48813;SDS011;34634;44.108;3.074;2023-04-16T10:30:24;4.35;;;2.22;;
48813;SDS011;34634;44.108;3.074;2023-04-16T10:32:51;4.78;;;2.65;;
48813;SDS011;34634;44.108;3.074;2023-04-16T10:35:20;3.47;;;2.20;;
48813;SDS011;34634;44.108;3.074;2023-04-16T10:37:46;2.90;;;2.10;;
48813;SDS011;34634;44.108;3.074;2023-04-16T10:40:25;4.30;;;2.25;;
48813;SDS011;34634;44.108;3.074;2023-04-16T10:42:53;3.55;;;1.80;;
48813;SDS011;34634;44.108;3.074;2023-04-16T10:45:22;3.55;;;2.08;;
48813;SDS011;34634;44.108;3.074;2023-04-16T10:47:54;2.55;;;1.90;;
48813;SDS011;34634;44.108;3.074;2023-04-16T10:50:21;6.15;;;2.67;;
48813;SDS011;34634;44.108;3.074;2023-04-16T10:52:47;5.40;;;2.40;;
48813;SDS011;34634;44.108;3.074;2023-04-16T10:55:17;4.88;;;2.13;;
48813;SDS011;34634;44.108;3.074;2023-04-16T10:57:43;2.83;;;1.80;;
48813;SDS011;34634;44.108;3.074;2023-04-16T11:00:20;5.78;;;2.47;;
48813;SDS011;34634;44.108;3.074;2023-04-16T11:02:51;3.72;;;2.15;;
48813;SDS011;34634;44.108;3.074;2023-04-16T11:05:20;3.17;;;1.90;;
48813;SDS011;34634;44.108;3.074;2023-04-16T11:07:47;2.92;;;1.70;;
48813;SDS011;34634;44.108;3.074;2023-04-16T11:10:13;5.53;;;1.92;;
48813;SDS011;34634;44.108;3.074;2023-04-16T11:12:40;6.38;;;1.95;;
48813;SDS011;34634;44.108;3.074;2023-04-16T11:15:12;2.45;;;1.80;;
48813;SDS011;34634;44.108;3.074;2023-04-16T11:17:45;4.05;;;2.15;;
48813;SDS011;34634;44.108;3.074;2023-04-16T11:22:41;3.35;;;1.80;;
48813;SDS011;34634;44.108;3.074;2023-04-16T11:25:09;2.35;;;1.67;;
48813;SDS011;34634;44.108;3.074;2023-04-16T11:27:36;3.75;;;1.88;;
48813;SDS011;34634;44.108;3.074;2023-04-16T11:30:03;4.38;;;2.28;;
48813;SDS011;34634;44.108;3.074;2023-04-16T11:32:30;3.03;;;2.03;;
48813;SDS011;34634;44.108;3.074;2023-04-16T11:34:57;3.25;;;2.20;;
48813;SDS011;34634;44.108;3.074;2023-04-16T11:37:34;4.20;;;1.95;;
48813;SDS011;34634;44.108;3.074;2023-04-16T11:40:00;3.42;;;1.90;;
48813;SDS011;34634;44.108;3.074;2023-04-16T11:42:29;2.50;;;1.80;;
48813;SDS011;34634;44.108;3.074;2023-04-16T11:44:56;5.78;;;1.63;;
48813;SDS011;34634;44.108;3.074;2023-04-16T11:47:25;3.47;;;1.92;;
48813;SDS011;34634;44.108;3.074;2023-04-16T11:49:51;3.63;;;1.77;;
48813;SDS011;34634;44.108;3.074;2023-04-16T11:52:29;3.00;;;1.85;;
48813;SDS011;34634;44.108;3.074;2023-04-16T11:54:56;5.10;;;1.98;;
48813;SDS011;34634;44.108;3.074;2023-04-16T11:57:26;3.55;;;1.80;;
48813;SDS011;34634;44.108;3.074;2023-04-16T11:59:53;2.70;;;1.67;;
48813;SDS011;34634;44.108;3.074;2023-04-16T12:05:04;2.42;;;1.30;;
48813;SDS011;34634;44.108;3.074;2023-04-16T12:07:53;2.88;;;1.77;;
48813;SDS011;34634;44.108;3.074;2023-04-16T12:10:19;2.95;;;1.40;;
48813;SDS011;34634;44.108;3.074;2023-04-16T12:12:45;1.92;;;1.40;;
48813;SDS011;34634;44.108;3.074;2023-04-16T12:15:12;4.25;;;1.73;;
48813;SDS011;34634;44.108;3.074;2023-04-16T12:17:38;3.05;;;1.80;;
48813;SDS011;34634;44.108;3.074;2023-04-16T12:20:11;6.80;;;3.55;;
48813;SDS011;34634;44.108;3.074;2023-04-16T12:22:39;4.93;;;2.95;;
48813;SDS011;34634;44.108;3.074;2023-04-16T12:25:15;3.22;;;1.90;;
48813;SDS011;34634;44.108;3.074;2023-04-16T12:27:46;3.35;;;1.67;;
48813;SDS011;34634;44.108;3.074;2023-04-16T12:30:13;3.05;;;1.40;;
48813;SDS011;34634;44.108;3.074;2023-04-16T12:32:40;3.65;;;1.10;;
48813;SDS011;34634;44.108;3.074;2023-04-16T12:35:08;2.97;;;1.48;;
48813;SDS011;34634;44.108;3.074;2023-04-16T12:37:34;5.93;;;1.25;;
48813;SDS011;34634;44.108;3.074;2023-04-16T12:40:01;1.92;;;0.98;;
48813;SDS011;34634;44.108;3.074;2023-04-16T12:42:29;1.02;;;0.70;;
48813;SDS011;34634;44.108;3.074;2023-04-16T12:45:00;1.02;;;0.80;;
48813;SDS011;34634;44.108;3.074;2023-04-16T12:47:28;2.22;;;1.00;;
48813;SDS011;34634;44.108;3.074;2023-04-16T12:49:55;1.98;;;1.00;;
48813;SDS011;34634;44.108;3.074;2023-04-16T12:52:22;1.10;;;0.82;;
48813;SDS011;34634;44.108;3.074;2023-04-16T12:54:49;3.25;;;0.73;;
48813;SDS011;34634;44.108;3.074;2023-04-16T12:57:15;0.95;;;0.80;;
48813;SDS011;34634;44.108;3.074;2023-04-16T12:59:41;1.00;;;0.60;;
48813;SDS011;34634;44.108;3.074;2023-04-16T13:02:08;1.00;;;0.90;;
48813;SDS011;34634;44.108;3.074;2023-04-16T13:04:34;2.38;;;1.20;;
48813;SDS011;34634;44.108;3.074;2023-04-16T13:07:00;2.03;;;0.90;;
48813;SDS011;34634;44.108;3.074;2023-04-16T13:09:27;1.20;;;1.10;;
48813;SDS011;34634;44.108;3.074;2023-04-16T13:11:53;2.95;;;0.90;;
48813;SDS011;34634;44.108;3.074;2023-04-16T13:14:20;1.13;;;0.90;;
48813;SDS011;34634;44.108;3.074;2023-04-16T13:16:46;1.50;;;1.02;;
48813;SDS011;34634;44.108;3.074;2023-04-16T13:19:12;1.05;;;0.80;;
48813;SDS011;34634;44.108;3.074;2023-04-16T13:21:40;0.95;;;0.80;;
48813;SDS011;34634;44.108;3.074;2023-04-16T13:24:06;1.13;;;0.80;;
48813;SDS011;34634;44.108;3.074;2023-04-16T13:26:32;1.50;;;0.70;;
48813;SDS011;34634;44.108;3.074;2023-04-16T13:28:59;1.08;;;0.98;;
48813;SDS011;34634;44.108;3.074;2023-04-16T13:31:25;1.20;;;0.70;;
48813;SDS011;34634;44.108;3.074;2023-04-16T13:33:51;1.27;;;0.68;;
48813;SDS011;34634;44.108;3.074;2023-04-16T13:36:18;1.30;;;0.80;;
48813;SDS011;34634;44.108;3.074;2023-04-16T13:38:44;1.33;;;0.70;;
48813;SDS011;34634;44.108;3.074;2023-04-16T13:41:11;1.25;;;0.80;;
48813;SDS011;34634;44.108;3.074;2023-04-16T13:43:37;0.85;;;0.70;;
48813;SDS011;34634;44.108;3.074;2023-04-16T13:46:03;1.20;;;0.80;;
48813;SDS011;34634;44.108;3.074;2023-04-16T13:48:30;2.35;;;0.60;;
48813;SDS011;34634;44.108;3.074;2023-04-16T13:50:57;1.38;;;0.70;;
48813;SDS011;34634;44.108;3.074;2023-04-16T13:53:23;1.05;;;0.68;;
48813;SDS011;34634;44.108;3.074;2023-04-16T13:55:49;1.35;;;0.70;;
48813;SDS011;34634;44.108;3.074;2023-04-16T13:58:16;2.30;;;0.70;;
48813;SDS011;34634;44.108;3.074;2023-04-16T14:00:42;1.38;;;0.60;;
48813;SDS011;34634;44.108;3.074;2023-04-16T14:03:09;1.15;;;0.60;;
48813;SDS011;34634;44.108;3.074;2023-04-16T14:05:35;1.10;;;0.70;;
48813;SDS011;34634;44.108;3.074;2023-04-16T14:08:01;1.48;;;0.60;;
48813;SDS011;34634;44.108;3.074;2023-04-16T14:10:48;0.65;;;0.60;;
48813;SDS011;34634;44.108;3.074;2023-04-16T14:13:14;1.25;;;0.70;;
48813;SDS011;34634;44.108;3.074;2023-04-16T14:15:40;0.70;;;0.50;;
48813;SDS011;34634;44.108;3.074;2023-04-16T14:18:07;1.48;;;0.52;;
48813;SDS011;34634;44.108;3.074;2023-04-16T14:20:33;2.50;;;0.60;;
48813;SDS011;34634;44.108;3.074;2023-04-16T14:22:59;0.57;;;0.57;;
48813;SDS011;34634;44.108;3.074;2023-04-16T14:25:26;0.90;;;0.50;;
48813;SDS011;34634;44.108;3.074;2023-04-16T14:27:53;0.90;;;0.70;;
48813;SDS011;34634;44.108;3.074;2023-04-16T14:30:19;0.82;;;0.73;;
48813;SDS011;34634;44.108;3.074;2023-04-16T14:32:46;0.65;;;0.60;;
48813;SDS011;34634;44.108;3.074;2023-04-16T14:35:12;1.25;;;0.70;;
48813;SDS011;34634;44.108;3.074;2023-04-16T14:37:38;2.17;;;0.90;;
48813;SDS011;34634;44.108;3.074;2023-04-16T14:40:05;0.73;;;0.73;;
48813;SDS011;34634;44.108;3.074;2023-04-16T14:42:33;1.02;;;0.60;;
48813;SDS011;34634;44.108;3.074;2023-04-16T14:45:01;1.23;;;0.80;;
48813;SDS011;34634;44.108;3.074;2023-04-16T14:47:28;1.35;;;1.02;;
48813;SDS011;34634;44.108;3.074;2023-04-16T14:49:54;1.30;;;0.80;;
48813;SDS011;34634;44.108;3.074;2023-04-16T14:52:20;1.08;;;0.70;;